createdAt,value
2019-04-23T00:02:44.209Z,15.70
2019-04-23T00:04:59.647Z,15.90
2019-04-23T00:10:12.385Z,15.70
2019-04-23T00:12:45.212Z,15.80
2019-04-23T00:15:21.536Z,16.10
2019-04-23T00:17:45.186Z,16.00
2019-04-23T00:20:14.727Z,16.00
2019-04-23T00:23:11.035Z,15.90
2019-04-23T00:26:17.752Z,16.10
2019-04-23T00:28:47.893Z,16.00
2019-04-23T00:31:24.524Z,16.10
2019-04-23T00:33:42.030Z,16.10
2019-04-23T00:36:22.937Z,16.10
2019-04-23T00:38:48.506Z,16.00
2019-04-23T00:41:17.851Z,15.80
2019-04-23T00:44:16.394Z,15.80
2019-04-23T00:46:22.310Z,15.70
2019-04-23T00:48:57.939Z,15.70
2019-04-23T00:51:27.454Z,15.40
2019-04-23T00:53:56.785Z,15.50
2019-04-23T00:56:40.286Z,15.40
2019-04-23T00:59:00.823Z,15.40
2019-04-23T01:04:07.176Z,15.40
2019-04-23T01:06:39.349Z,15.30
2019-04-23T01:09:08.489Z,15.50
2019-04-23T01:11:39.318Z,15.50
2019-04-23T01:14:13.657Z,15.40
2019-04-23T01:16:45.959Z,15.20
2019-04-23T01:21:43.368Z,15.10
2019-04-23T01:24:43.873Z,15.00
2019-04-23T01:27:44.613Z,15.00
2019-04-23T01:32:48.469Z,14.90
2019-04-23T01:35:24.251Z,14.80
2019-04-23T01:37:47.706Z,14.80
2019-04-23T01:40:27.220Z,14.90
2019-04-23T01:42:49.205Z,14.90
2019-04-23T01:45:24.259Z,14.80
2019-04-23T01:47:59.719Z,14.80
2019-04-23T01:50:36.508Z,15.10
2019-04-23T01:53:12.259Z,14.90
2019-04-23T01:55:45.491Z,15.10
2019-04-23T01:58:28.434Z,15.00
2019-04-23T02:00:45.126Z,14.90
2019-04-23T02:03:15.242Z,14.90
2019-04-23T02:05:50.802Z,14.80
2019-04-23T02:08:15.628Z,14.70
2019-04-23T02:13:28.579Z,14.90
2019-04-23T02:15:55.484Z,14.80
2019-04-23T02:18:43.734Z,14.60
2019-04-23T02:21:15.552Z,14.70
2019-04-23T02:23:44.367Z,14.70
2019-04-23T02:26:15.177Z,14.70
2019-04-23T02:36:22.733Z,14.70
2019-04-23T02:38:58.273Z,14.60
2019-04-23T02:41:34.733Z,14.50
2019-04-23T02:44:11.493Z,14.50
2019-04-23T02:46:31.773Z,14.40
2019-04-23T02:49:17.720Z,14.50
2019-04-23T02:59:28.578Z,14.40
2019-04-23T03:02:00.311Z,14.30
2019-04-23T03:04:26.876Z,14.20
2019-04-23T03:07:07.010Z,14.20
2019-04-23T03:09:37.034Z,14.10
2019-04-23T03:11:56.796Z,14.10
2019-04-23T03:19:38.187Z,14.20
2019-04-23T03:22:15.656Z,14.00
2019-04-23T03:25:27.863Z,13.80
2019-04-23T03:36:02.116Z,13.60
2019-04-23T03:37:55.896Z,13.60
2019-04-23T03:40:18.721Z,13.50
2019-04-23T03:43:46.411Z,13.60
2019-04-23T03:48:08.490Z,13.40
2019-04-23T03:50:35.879Z,13.40
2019-04-23T03:53:03.419Z,13.40
2019-04-23T03:55:45.369Z,13.40
2019-04-23T03:58:21.196Z,13.30
2019-04-23T04:03:42.252Z,13.30
2019-04-23T04:11:02.554Z,13.30
2019-04-23T04:13:31.074Z,13.20
2019-04-23T04:16:07.357Z,13.50
2019-04-23T04:21:08.677Z,13.20
2019-04-23T04:23:51.336Z,13.20
2019-04-23T04:26:06.987Z,13.20
2019-04-23T04:31:37.405Z,13.10
2019-04-23T04:36:26.476Z,13.10
2019-04-23T04:38:48.317Z,13.00
2019-04-23T04:41:31.227Z,12.70
2019-04-23T04:46:30.509Z,12.90
2019-04-23T04:48:58.853Z,12.90
2019-04-23T04:54:12.346Z,13.30
2019-04-23T04:56:38.402Z,13.00
2019-04-23T04:59:03.812Z,13.00
2019-04-23T05:01:28.640Z,13.00
2019-04-23T05:04:18.250Z,13.10
2019-04-23T05:06:44.406Z,13.10
2019-04-23T05:09:12.036Z,13.00
2019-04-23T05:14:12.749Z,13.00
2019-04-23T05:16:43.236Z,13.00
2019-04-23T05:19:29.782Z,12.70
2019-04-23T05:24:28.673Z,12.80
2019-04-23T05:26:48.150Z,12.80
2019-04-23T05:29:32.500Z,13.00
2019-04-23T05:31:52.940Z,13.00
2019-04-23T05:34:29.324Z,13.30
2019-04-23T05:37:00.191Z,13.10
2019-04-23T05:39:35.179Z,13.30
2019-04-23T05:42:07.127Z,13.10
2019-04-23T05:47:16.013Z,13.10
2019-04-23T05:49:45.422Z,13.10
2019-04-23T05:52:16.141Z,13.00
2019-04-23T05:54:54.780Z,13.00
2019-04-23T05:57:14.206Z,13.00
2019-04-23T05:59:51.654Z,13.30
2019-04-23T06:02:26.207Z,13.10
2019-04-23T06:04:57.289Z,13.00
2019-04-23T06:12:31.470Z,13.10
2019-04-23T06:15:07.420Z,13.20
2019-04-23T06:17:54.211Z,13.20
2019-04-23T06:20:10.176Z,13.30
2019-04-23T06:22:45.908Z,13.40
2019-04-23T06:25:21.993Z,13.30
2019-04-23T06:27:52.758Z,13.30
2019-04-23T06:30:26.651Z,13.30
2019-04-23T06:32:51.327Z,13.50
2019-04-23T06:35:23.772Z,13.50
2019-04-23T06:40:26.602Z,13.70
2019-04-23T06:43:09.791Z,13.80
2019-04-23T06:45:35.568Z,13.90
2019-04-23T06:48:09.141Z,14.10
2019-04-23T06:50:43.028Z,13.90
2019-04-23T06:53:04.254Z,13.90
2019-04-23T06:55:45.724Z,13.80
2019-04-23T06:58:18.825Z,14.00
2019-04-23T07:00:48.831Z,13.90
2019-04-23T07:03:24.160Z,14.10
2019-04-23T07:13:53.437Z,14.30
2019-04-23T07:16:14.931Z,14.30
2019-04-23T07:24:02.361Z,14.40
2019-04-23T07:26:34.847Z,14.40
2019-04-23T07:29:05.088Z,14.50
2019-04-23T07:31:37.300Z,14.40
2019-04-23T07:39:27.306Z,14.70
2019-04-23T07:42:24.742Z,14.70
2019-04-23T07:45:17.549Z,14.80
2019-04-23T07:50:49.400Z,14.80
2019-04-23T07:53:12.890Z,15.00
2019-04-23T07:58:29.128Z,15.40
2019-04-23T08:01:02.042Z,15.30
2019-04-23T08:05:44.018Z,15.50
2019-04-23T08:08:18.327Z,15.60
2019-04-23T08:16:25.844Z,15.40
2019-04-23T08:18:49.564Z,15.50
2019-04-23T08:24:01.890Z,15.80
2019-04-23T08:29:30.277Z,15.90
2019-04-23T08:39:46.901Z,16.60
2019-04-23T08:45:28.589Z,17.00
2019-04-23T08:48:17.324Z,16.70
2019-04-23T08:50:37.169Z,16.80
2019-04-23T08:53:24.747Z,16.90
2019-04-23T08:58:22.436Z,17.30
2019-04-23T09:01:12.239Z,17.40
2019-04-23T09:03:25.213Z,17.40
2019-04-23T09:06:13.770Z,17.50
2019-04-23T09:11:06.768Z,17.60
2019-04-23T09:15:59.910Z,17.70
2019-04-23T09:18:32.141Z,18.00
2019-04-23T09:21:10.533Z,18.00
2019-04-23T09:26:08.925Z,18.20
2019-04-23T09:28:53.056Z,18.10
2019-04-23T09:31:56.959Z,18.20
2019-04-23T09:36:51.676Z,18.40
2019-04-23T09:42:24.088Z,18.70
2019-04-23T09:45:14.552Z,18.90
2019-04-23T09:50:25.524Z,18.80
2019-04-23T09:53:04.938Z,18.70
2019-04-23T09:58:06.003Z,18.80
2019-04-23T10:02:59.130Z,18.90
2019-04-23T10:05:22.088Z,18.90
2019-04-23T10:07:51.783Z,18.80
2019-04-23T10:10:14.512Z,18.90
2019-04-23T10:12:46.065Z,18.90
2019-04-23T10:15:24.383Z,19.00
2019-04-23T10:17:50.049Z,18.90
2019-04-23T10:20:20.683Z,19.00
2019-04-23T10:22:52.479Z,18.90
2019-04-23T10:25:23.598Z,19.10
2019-04-23T10:28:00.617Z,19.40
2019-04-23T10:30:26.904Z,19.60
2019-04-23T10:32:57.860Z,19.70
2019-04-23T10:35:38.697Z,19.90
2019-04-23T10:38:06.348Z,20.00
2019-04-23T10:40:37.507Z,20.30
2019-04-23T10:43:05.505Z,20.20
2019-04-23T10:46:15.328Z,20.10
2019-04-23T10:49:43.986Z,20.10
2019-04-23T10:56:53.748Z,20.50
2019-04-23T11:04:54.348Z,20.40
2019-04-23T11:07:28.526Z,20.50
2019-04-23T11:10:05.765Z,20.80
2019-04-23T11:12:44.545Z,21.10
2019-04-23T11:15:36.206Z,21.20
2019-04-23T11:20:34.049Z,21.20
2019-04-23T11:23:05.019Z,21.00
2019-04-23T11:28:11.826Z,20.80
2019-04-23T11:33:25.131Z,20.90
2019-04-23T11:36:01.378Z,20.90
2019-04-23T11:38:47.450Z,21.10
2019-04-23T11:40:44.824Z,21.10
2019-04-23T11:43:29.262Z,21.30
2019-04-23T11:45:56.335Z,21.80
2019-04-23T11:51:30.277Z,22.30
2019-04-23T11:53:34.166Z,22.60
2019-04-23T11:56:02.607Z,22.60
2019-04-23T11:58:37.662Z,22.50
2019-04-23T12:01:42.274Z,22.40
2019-04-23T12:07:10.984Z,22.50
2019-04-23T12:09:48.783Z,22.30
2019-04-23T12:12:17.174Z,22.30
2019-04-23T12:14:51.113Z,22.60
2019-04-23T12:17:47.084Z,22.50
2019-04-23T12:22:41.914Z,22.10
2019-04-23T12:25:21.678Z,22.10
2019-04-23T12:27:33.234Z,21.80
2019-04-23T12:30:17.388Z,21.70
2019-04-23T12:33:04.181Z,21.50
2019-04-23T12:35:19.606Z,21.80
2019-04-23T12:38:09.814Z,21.90
2019-04-23T12:40:38.156Z,22.30
2019-04-23T12:55:57.844Z,21.60
2019-04-23T12:58:24.836Z,21.60
2019-04-23T13:01:05.251Z,21.70
2019-04-23T13:06:03.573Z,21.60
2019-04-23T13:08:38.164Z,21.60
2019-04-23T13:11:09.291Z,21.50
2019-04-23T13:13:48.488Z,21.30
2019-04-23T13:16:17.419Z,21.30
2019-04-23T13:18:46.964Z,21.50
2019-04-23T13:21:38.445Z,21.40
2019-04-23T13:23:55.564Z,21.60
2019-04-23T13:26:27.900Z,21.60
2019-04-23T13:29:01.442Z,21.90
2019-04-23T13:31:30.076Z,21.80
2019-04-23T13:34:08.870Z,22.00
2019-04-23T13:36:45.051Z,22.10
2019-04-23T13:39:24.707Z,22.30
2019-04-23T13:41:38.858Z,22.20
2019-04-23T13:44:22.834Z,22.20
2019-04-23T13:46:50.965Z,22.30
2019-04-23T13:49:18.478Z,22.40
2019-04-23T13:51:57.267Z,22.50
2019-04-23T13:59:44.350Z,22.90
2019-04-23T14:02:04.104Z,23.00
2019-04-23T14:04:48.358Z,22.80
2019-04-23T14:07:21.306Z,22.60
2019-04-23T14:10:04.464Z,22.60
2019-04-23T14:12:17.858Z,22.60
2019-04-23T14:14:55.939Z,22.50
2019-04-23T14:20:04.517Z,22.50
2019-04-23T14:22:51.314Z,22.30
2019-04-23T14:30:13.176Z,22.10
2019-04-23T14:32:38.009Z,22.20
2019-04-23T14:35:25.477Z,22.20
2019-04-23T14:37:58.105Z,22.30
2019-04-23T14:40:22.216Z,22.40
2019-04-23T14:43:09.150Z,22.40
2019-04-23T14:48:05.772Z,22.80
2019-04-23T14:53:13.132Z,23.10
2019-04-23T14:58:23.867Z,23.20
2019-04-23T15:00:52.988Z,23.40
2019-04-23T15:06:04.923Z,23.60
2019-04-23T15:08:28.563Z,23.40
2019-04-23T15:11:06.131Z,23.50
2019-04-23T15:28:37.467Z,22.50
2019-04-23T15:31:34.331Z,22.60
2019-04-23T15:34:10.714Z,22.40
2019-04-23T15:39:11.562Z,22.40
2019-04-23T15:41:43.960Z,22.30
2019-04-23T15:44:08.692Z,22.10
2019-04-23T15:46:39.070Z,22.00
2019-04-23T15:49:18.222Z,21.90
2019-04-23T15:54:30.224Z,21.80
2019-04-23T15:56:52.290Z,22.00
2019-04-23T15:59:27.512Z,22.00
2019-04-23T16:01:42.992Z,21.80
2019-04-23T16:03:57.575Z,21.70
2019-04-23T16:06:30.897Z,21.60
2019-04-23T16:09:17.897Z,21.70
2019-04-23T16:11:51.770Z,21.70
2019-04-23T16:14:34.999Z,21.70
2019-04-23T16:17:06.674Z,21.60
2019-04-23T16:19:53.509Z,21.60
2019-04-23T16:22:32.072Z,21.50
2019-04-23T16:24:55.294Z,21.70
2019-04-23T16:27:44.519Z,21.50
2019-04-23T16:30:06.260Z,21.60
2019-04-23T16:32:52.420Z,21.60
2019-04-23T16:35:28.393Z,21.50
2019-04-23T16:38:01.627Z,21.20
2019-04-23T16:40:28.929Z,21.10
2019-04-23T16:42:59.714Z,21.00
2019-04-23T16:48:09.664Z,21.20
2019-04-23T16:50:41.749Z,21.10
2019-04-23T16:53:13.508Z,21.20
2019-04-23T16:55:37.915Z,21.20
2019-04-23T16:58:11.842Z,21.10
2019-04-23T17:00:51.261Z,21.10
2019-04-23T17:03:19.648Z,21.10
2019-04-23T17:05:59.420Z,21.20
2019-04-23T17:11:00.067Z,21.10
2019-04-23T17:13:24.065Z,21.00
2019-04-23T17:15:58.065Z,20.90
2019-04-23T17:20:56.623Z,21.10
2019-04-23T17:23:40.183Z,20.80
2019-04-23T17:26:13.657Z,20.80
2019-04-23T17:28:52.801Z,20.70
2019-04-23T17:31:26.367Z,20.60
2019-04-23T17:33:43.475Z,20.60
2019-04-23T17:36:51.441Z,20.50
2019-04-23T17:39:35.537Z,20.20
2019-04-23T17:42:27.408Z,20.20
2019-04-23T17:45:17.952Z,20.20
2019-04-23T17:47:37.498Z,20.00
2019-04-23T17:50:13.481Z,19.80
2019-04-23T17:52:51.183Z,19.80
2019-04-23T17:57:43.665Z,19.60
2019-04-23T18:05:37.140Z,19.40
2019-04-23T18:08:05.289Z,19.40
2019-04-23T18:10:34.032Z,19.30
2019-04-23T18:15:17.482Z,19.20
2019-04-23T18:20:36.915Z,19.10
2019-04-23T18:23:24.196Z,19.00
2019-04-23T18:28:17.225Z,18.90
2019-04-23T18:34:08.668Z,18.70
2019-04-23T18:36:31.773Z,18.70
2019-04-23T18:39:06.394Z,18.60
2019-04-23T18:41:42.707Z,18.50
2019-04-23T18:44:17.252Z,18.40
2019-04-23T18:46:43.584Z,18.40
2019-04-23T18:49:13.129Z,18.30
2019-04-23T18:51:58.066Z,18.20
2019-04-23T18:54:15.351Z,18.10
2019-04-23T18:57:06.561Z,18.00
2019-04-23T18:59:28.734Z,18.00
2019-04-23T19:02:11.156Z,17.90
2019-04-23T19:04:54.328Z,17.70
2019-04-23T19:07:32.238Z,17.70
2019-04-23T19:10:27.586Z,17.60
2019-04-23T19:13:12.587Z,17.50
2019-04-23T19:18:19.153Z,17.30
2019-04-23T19:23:25.933Z,17.20
2019-04-23T19:25:51.454Z,17.10
2019-04-23T19:31:07.475Z,17.10
2019-04-23T19:33:49.228Z,17.00
2019-04-23T19:38:44.133Z,16.90
2019-04-23T19:41:08.905Z,16.90
2019-04-23T19:43:49.472Z,16.90
2019-04-23T19:48:57.920Z,16.80
2019-04-23T19:51:30.155Z,16.70
2019-04-23T19:54:17.153Z,16.90
2019-04-23T19:58:56.929Z,16.70
2019-04-23T20:01:33.829Z,16.60
2019-04-23T20:03:55.991Z,16.70
2019-04-23T20:06:58.850Z,16.60
2019-04-23T20:09:30.340Z,16.50
2019-04-23T20:11:50.591Z,16.50
2019-04-23T20:14:11.296Z,16.40
2019-04-23T20:17:04.078Z,16.40
2019-04-23T20:19:18.488Z,16.40
2019-04-23T20:21:57.352Z,16.30
2019-04-23T20:24:28.266Z,16.30
2019-04-23T20:26:59.363Z,16.10
2019-04-23T20:30:05.366Z,16.10
2019-04-23T20:35:00.343Z,16.00
2019-04-23T20:37:42.739Z,16.00
2019-04-23T20:39:59.923Z,15.90
2019-04-23T20:45:07.842Z,15.80
2019-04-23T20:51:14.311Z,15.80
2019-04-23T20:53:56.767Z,15.80
2019-04-23T20:56:30.214Z,15.80
2019-04-23T21:01:37.235Z,15.70
2019-04-23T21:04:01.692Z,15.70
2019-04-23T21:06:44.176Z,15.70
2019-04-23T21:11:48.214Z,15.70
2019-04-23T21:14:31.807Z,15.80
2019-04-23T21:19:26.207Z,15.70
2019-04-23T21:22:14.129Z,15.70
2019-04-23T21:24:42.956Z,15.70
2019-04-23T21:27:38.565Z,15.70
2019-04-23T21:30:03.052Z,15.80
2019-04-23T21:32:42.269Z,15.60
2019-04-23T21:38:00.370Z,15.60
2019-04-23T21:41:01.781Z,15.60
2019-04-23T21:43:47.538Z,15.50
2019-04-23T21:46:15.353Z,15.40
2019-04-23T21:51:26.209Z,15.40
2019-04-23T21:53:46.077Z,15.40
2019-04-23T21:56:15.310Z,15.50
2019-04-23T21:59:05.953Z,15.50
2019-04-23T22:01:32.951Z,15.50
2019-04-23T22:04:08.874Z,15.50
2019-04-23T22:09:04.370Z,15.30
2019-04-23T22:16:55.753Z,15.40
2019-04-23T22:21:50.203Z,15.40
2019-04-23T22:29:18.756Z,15.20
2019-04-23T22:34:22.086Z,15.20
2019-04-23T22:39:21.927Z,15.20
2019-04-23T22:42:08.866Z,15.20
2019-04-23T22:44:30.892Z,15.20
2019-04-23T22:47:03.991Z,15.20
2019-04-23T22:49:45.155Z,15.20
2019-04-23T22:52:11.335Z,15.30
2019-04-23T22:54:51.672Z,15.30
2019-04-23T22:57:04.754Z,15.30
2019-04-23T22:59:56.444Z,15.30
2019-04-23T23:02:40.762Z,15.30
2019-04-23T23:05:20.200Z,15.30
2019-04-23T23:07:47.729Z,15.20
2019-04-23T23:10:14.086Z,15.30
2019-04-23T23:17:56.309Z,15.20
2019-04-23T23:22:59.081Z,15.00
2019-04-23T23:25:24.769Z,14.90
2019-04-23T23:27:58.950Z,14.90
2019-04-23T23:30:28.295Z,14.80
2019-04-23T23:33:00.636Z,14.70
2019-04-23T23:35:27.709Z,14.70
2019-04-23T23:38:03.859Z,14.70
2019-04-23T23:40:44.072Z,14.70
2019-04-23T23:43:15.801Z,14.50
2019-04-23T23:48:06.678Z,14.50
2019-04-23T23:50:46.039Z,14.10
2019-04-23T23:55:52.349Z,14.10
2019-04-23T23:58:23.512Z,13.90
